Time;durP1;ratioP1;P1;durP2;ratioP2;P2;SDS_P1;SDS_P2;PMS_P1;PMS_P2;Temp;Humidity;BMP_temperature;BMP_pressure;BME280_temperature;BME280_humidity;BME280_pressure;Samples;Min_cycle;Max_cycle;Signal;HPM_P1;HPM_P2
2022/05/06 00:02:36;;;;;;;9.02;8.43;;;9.20;99.90;;;;;;5129784;27;21137;-56
2022/05/06 00:05:16;;;;;;;10.25;9.57;;;9.10;99.90;;;;;;5102588;27;20997;-55
2022/05/06 00:07:56;;;;;;;10.18;9.25;;;9.10;99.90;;;;;;5083132;27;20559;-56
2022/05/06 00:10:35;;;;;;;9.50;8.77;;;9.10;99.90;;;;;;5083403;27;20536;-56
2022/05/06 00:13:15;;;;;;;10.13;9.43;;;9.00;99.90;;;;;;5120439;27;20671;-57
2022/05/06 00:15:55;;;;;;;10.80;9.90;;;9.00;99.90;;;;;;5082072;27;20565;-56
2022/05/06 00:18:35;;;;;;;10.27;9.57;;;9.00;99.90;;;;;;5103968;27;21206;-55
2022/05/06 00:21:15;;;;;;;9.52;8.93;;;9.10;99.90;;;;;;5083469;27;20552;-56
2022/05/06 00:23:54;;;;;;;9.73;8.93;;;9.20;99.90;;;;;;5103788;27;20546;-56
2022/05/06 00:26:34;;;;;;;9.98;9.20;;;9.20;99.90;;;;;;5133046;27;20609;-55
2022/05/06 00:29:14;;;;;;;9.05;8.32;;;9.30;99.90;;;;;;5132161;27;20747;-56
2022/05/06 00:31:54;;;;;;;9.65;9.15;;;9.40;99.90;;;;;;5165857;27;20537;-56
2022/05/06 00:34:34;;;;;;;9.05;8.45;;;9.40;99.90;;;;;;5129947;27;20594;-56
2022/05/06 00:37:13;;;;;;;10.70;9.90;;;9.40;99.90;;;;;;5056561;28;20569;-57
2022/05/06 00:39:53;;;;;;;9.80;9.10;;;9.30;99.90;;;;;;5081564;27;20556;-55
2022/05/06 00:42:33;;;;;;;8.82;8.18;;;9.20;99.90;;;;;;5082938;28;20719;-56
2022/05/06 00:45:13;;;;;;;8.70;8.00;;;9.20;99.90;;;;;;5126975;27;20658;-56
2022/05/06 00:47:53;;;;;;;9.63;8.90;;;9.10;99.90;;;;;;5083148;27;20563;-56
2022/05/06 00:50:33;;;;;;;9.70;8.40;;;9.00;99.90;;;;;;5083174;27;20585;-56
2022/05/06 00:53:13;;;;;;;9.70;8.90;;;8.90;99.90;;;;;;5083331;28;20561;-54
2022/05/06 00:55:55;;;;;;;8.68;8.07;;;8.80;99.90;;;;;;5123024;27;20871;-56
2022/05/06 00:58:36;;;;;;;9.15;8.45;;;8.80;99.90;;;;;;5083404;27;20857;-55
2022/05/06 01:01:15;;;;;;;8.95;8.18;;;8.80;99.90;;;;;;5083253;28;20604;-56
2022/05/06 01:03:55;;;;;;;8.00;7.47;;;8.80;99.90;;;;;;5145039;27;20549;-56
2022/05/06 01:06:36;;;;;;;8.43;7.82;;;8.90;99.90;;;;;;5125665;27;20608;-56
2022/05/06 01:09:18;;;;;;;7.95;7.45;;;8.90;99.90;;;;;;5103905;27;20546;-56
2022/05/06 01:12:03;;;;;;;8.32;7.72;;;8.90;99.90;;;;;;5083435;28;20550;-56
2022/05/06 01:14:42;;;;;;;7.45;6.93;;;8.80;99.90;;;;;;5101049;27;20670;-55
2022/05/06 01:17:30;;;;;;;6.90;6.28;;;8.80;99.90;;;;;;5062203;27;20590;-56
2022/05/06 01:20:11;;;;;;;7.78;7.18;;;8.90;99.90;;;;;;5082753;28;20695;-55
2022/05/06 01:22:53;;;;;;;7.07;6.45;;;8.90;99.90;;;;;;5127768;27;20668;-56
2022/05/06 01:25:33;;;;;;;6.45;5.90;;;8.80;99.90;;;;;;5102989;27;20545;-56
2022/05/06 01:28:14;;;;;;;7.40;6.75;;;8.80;99.90;;;;;;5130344;22;20650;-55
2022/05/06 01:31:00;;;;;;;6.95;6.38;;;8.70;99.90;;;;;;5083688;27;21018;-56
2022/05/06 01:33:43;;;;;;;6.85;6.35;;;8.60;99.90;;;;;;5145734;27;20661;-55
2022/05/06 01:36:24;;;;;;;6.63;6.03;;;8.50;99.90;;;;;;5123556;27;21076;-54
2022/05/06 01:39:03;;;;;;;7.18;6.45;;;8.50;99.90;;;;;;5083879;27;20583;-55
2022/05/06 01:41:46;;;;;;;7.03;6.45;;;8.40;99.90;;;;;;5083542;28;20668;-55
2022/05/06 01:44:31;;;;;;;6.93;6.28;;;8.30;99.90;;;;;;5103915;27;20546;-55
2022/05/06 01:47:19;;;;;;;6.63;6.10;;;8.40;99.90;;;;;;5123394;27;20725;-55
2022/05/06 01:50:01;;;;;;;6.32;5.78;;;8.20;99.90;;;;;;5123816;27;20664;-55
2022/05/06 01:52:49;;;;;;;6.65;6.20;;;8.10;99.90;;;;;;5103556;27;20622;-55
2022/05/06 01:55:29;;;;;;;7.15;6.65;;;8.10;99.90;;;;;;5082095;27;20577;-56
2022/05/06 01:58:16;;;;;;;6.40;6.00;;;8.00;99.90;;;;;;5103539;27;20663;-55
2022/05/06 02:01:02;;;;;;;6.63;6.03;;;7.90;99.90;;;;;;5083208;28;20680;-55
2022/05/06 02:06:45;;;;;;;6.30;5.72;;;7.80;99.90;;;;;;5126803;27;20954;-56
2022/05/06 02:09:30;;;;;;;6.25;5.75;;;7.80;99.90;;;;;;5083694;27;20547;-56
2022/05/06 02:12:13;;;;;;;6.60;5.47;;;7.90;99.90;;;;;;5143906;27;21185;-55
2022/05/06 02:15:11;;;;;;;6.35;5.85;;;7.80;99.90;;;;;;5102423;27;21025;-55
2022/05/06 02:18:10;;;;;;;6.85;6.35;;;7.80;99.90;;;;;;5071202;28;21207;-55
2022/05/06 02:21:09;;;;;;;6.20;5.70;;;7.80;99.90;;;;;;5082940;28;20672;-56
2022/05/06 02:24:08;;;;;;;6.60;6.15;;;7.80;99.90;;;;;;5104201;27;20545;-55
2022/05/06 02:27:02;;;;;;;6.43;6.03;;;7.70;99.90;;;;;;5080231;27;21024;-55
2022/05/06 02:33:12;;;;;;;5.93;5.53;;;7.70;99.90;;;;;;5083842;28;20543;-55
2022/05/06 02:35:45;;;;;;;5.70;5.30;;;7.50;99.90;;;;;;5102789;27;20943;-55
2022/05/06 02:38:31;;;;;;;5.63;5.10;;;7.50;99.90;;;;;;5067764;27;20580;-55
2022/05/06 02:41:14;;;;;;;5.03;4.72;;;7.50;99.90;;;;;;5078953;27;21053;-55
2022/05/06 02:44:14;;;;;;;5.47;4.97;;;7.50;99.90;;;;;;5067331;28;20606;-56
2022/05/06 02:46:57;;;;;;;5.28;4.88;;;7.50;99.90;;;;;;5120595;27;20670;-55
2022/05/06 02:49:37;;;;;;;7.30;4.90;;;7.40;99.90;;;;;;5082889;27;20560;-55
2022/05/06 02:52:17;;;;;;;6.38;5.53;;;7.40;99.90;;;;;;5124588;27;20693;-55
2022/05/06 02:54:57;;;;;;;5.00;4.60;;;7.40;99.90;;;;;;5103790;27;20554;-55
2022/05/06 02:57:37;;;;;;;6.47;5.00;;;7.40;99.90;;;;;;5097209;27;20547;-55
2022/05/06 03:00:17;;;;;;;5.05;4.65;;;7.50;99.90;;;;;;5124136;27;20544;-55
2022/05/06 03:02:58;;;;;;;6.95;4.97;;;7.50;99.90;;;;;;5122787;27;21073;-53
2022/05/06 03:05:41;;;;;;;5.03;4.63;;;7.50;99.90;;;;;;5136147;27;20609;-55
2022/05/06 03:08:21;;;;;;;5.07;4.78;;;7.50;99.90;;;;;;5070906;27;20694;-55
2022/05/06 03:11:02;;;;;;;4.97;4.57;;;7.50;99.90;;;;;;5136574;27;20664;-55
2022/05/06 03:13:45;;;;;;;6.10;4.90;;;7.50;99.90;;;;;;5083338;27;20569;-55
2022/05/06 03:16:28;;;;;;;5.32;4.93;;;7.50;99.90;;;;;;5120818;27;20560;-55
2022/05/06 03:19:11;;;;;;;5.47;5.07;;;7.50;99.90;;;;;;5063663;28;21008;-55
2022/05/06 03:21:54;;;;;;;6.20;5.70;;;7.50;99.90;;;;;;5095552;27;20753;-55
2022/05/06 03:24:34;;;;;;;5.95;5.28;;;7.50;99.90;;;;;;5117958;27;20972;-55
2022/05/06 03:30:09;;;;;;;6.30;5.90;;;7.40;99.90;;;;;;5101480;27;20538;-55
2022/05/06 03:32:50;;;;;;;6.53;5.95;;;7.30;99.90;;;;;;5082711;28;20664;-55
2022/05/06 03:35:33;;;;;;;6.97;6.57;;;7.20;99.90;;;;;;5082257;27;20568;-55
2022/05/06 03:38:13;;;;;;;6.55;6.05;;;7.10;99.90;;;;;;5141239;27;21027;-55
2022/05/06 03:40:59;;;;;;;6.55;6.15;;;7.10;99.90;;;;;;5083286;27;20539;-55
2022/05/06 03:43:40;;;;;;;5.63;5.22;;;7.10;99.90;;;;;;5083606;28;20624;-55
2022/05/06 03:46:28;;;;;;;6.00;5.60;;;7.10;99.90;;;;;;5102823;27;20662;-55
2022/05/06 03:49:08;;;;;;;6.38;5.85;;;7.10;99.90;;;;;;5084405;27;20692;-55
2022/05/06 03:51:49;;;;;;;6.60;6.10;;;7.00;99.90;;;;;;5083302;27;21006;-55
2022/05/06 03:54:33;;;;;;;5.90;5.40;;;7.00;99.90;;;;;;5083825;27;20555;-55
2022/05/06 03:57:14;;;;;;;6.10;5.60;;;6.90;99.90;;;;;;5123501;27;21036;-55
2022/05/06 03:59:54;;;;;;;6.10;5.47;;;6.90;99.90;;;;;;5083344;27;20667;-55
2022/05/06 04:02:38;;;;;;;5.20;4.78;;;6.90;99.90;;;;;;5083715;28;20543;-55
2022/05/06 04:05:21;;;;;;;5.78;5.38;;;6.90;99.90;;;;;;5143917;27;20603;-55
2022/05/06 04:08:03;;;;;;;6.15;5.75;;;7.00;99.90;;;;;;5066722;27;20595;-56
2022/05/06 04:10:44;;;;;;;6.20;5.65;;;7.00;99.90;;;;;;5083407;27;21075;-55
2022/05/06 04:13:24;;;;;;;7.75;5.80;;;7.20;99.90;;;;;;5091092;27;21121;-55
2022/05/06 04:16:04;;;;;;;6.03;5.63;;;7.30;99.90;;;;;;5102224;27;21238;-55
2022/05/06 04:18:45;;;;;;;6.18;4.95;;;7.40;99.90;;;;;;5067567;28;20572;-55
2022/05/06 04:24:24;;;;;;;5.80;5.40;;;7.70;99.90;;;;;;5101829;27;20670;-55
2022/05/06 04:27:04;;;;;;;5.28;4.82;;;7.80;99.90;;;;;;5078593;27;20675;-55
2022/05/06 04:29:44;;;;;;;6.95;5.43;;;7.90;99.90;;;;;;5076858;28;21121;-55
2022/05/06 04:32:23;;;;;;;6.15;5.65;;;8.00;99.90;;;;;;5081457;28;20672;-55
2022/05/06 04:35:05;;;;;;;6.38;5.88;;;8.10;99.90;;;;;;5101141;27;20565;-56
2022/05/06 04:37:45;;;;;;;6.95;6.22;;;8.30;99.90;;;;;;5122233;27;21039;-53
2022/05/06 04:40:26;;;;;;;6.28;5.82;;;8.40;99.90;;;;;;5133957;27;20542;-55
2022/05/06 04:43:06;;;;;;;5.78;5.47;;;8.50;99.90;;;;;;5150859;27;20681;-55
2022/05/06 04:45:50;;;;;;;6.93;6.30;;;8.70;99.90;;;;;;5098262;27;20646;-55
2022/05/06 04:48:32;;;;;;;6.15;5.65;;;8.90;99.90;;;;;;5067856;28;20681;-55
2022/05/06 04:51:15;;;;;;;6.05;5.65;;;9.10;99.90;;;;;;5102284;27;20550;-55
2022/05/06 04:53:55;;;;;;;6.20;5.80;;;9.30;99.90;;;;;;5103159;27;20666;-55
2022/05/06 04:56:36;;;;;;;5.72;5.32;;;9.50;99.90;;;;;;5103340;27;20669;-55
2022/05/06 04:59:26;;;;;;;5.53;5.10;;;9.60;99.90;;;;;;5081385;27;20544;-55
2022/05/06 05:02:07;;;;;;;5.45;5.05;;;9.70;99.90;;;;;;5099104;27;20670;-55
2022/05/06 05:04:52;;;;;;;6.75;6.05;;;9.70;99.90;;;;;;5146381;27;20902;-55
2022/05/06 05:07:33;;;;;;;5.60;5.20;;;9.80;99.90;;;;;;5076902;28;20670;-55
2022/05/06 05:10:13;;;;;;;5.85;5.45;;;9.90;99.90;;;;;;5102990;27;20545;-55
2022/05/06 05:12:54;;;;;;;5.78;5.28;;;9.90;99.90;;;;;;5102517;27;20959;-55
2022/05/06 05:15:39;;;;;;;5.20;4.80;;;10.00;99.90;;;;;;5140499;27;20542;-55
2022/05/06 05:18:20;;;;;;;6.10;5.60;;;10.10;99.90;;;;;;5089114;27;20692;-55
2022/05/06 05:21:00;;;;;;;5.30;4.90;;;10.20;99.90;;;;;;5082659;28;20683;-55
2022/05/06 05:23:40;;;;;;;5.78;5.38;;;10.30;99.90;;;;;;5124481;27;20528;-55
2022/05/06 05:26:20;;;;;;;6.72;6.22;;;10.30;99.90;;;;;;5130569;27;20672;-55
2022/05/06 05:29:01;;;;;;;8.63;7.78;;;10.30;99.90;;;;;;5144924;27;20680;-55
2022/05/06 05:31:43;;;;;;;26.70;23.67;;;10.30;99.90;;;;;;5103413;27;20673;-55
2022/05/06 05:34:24;;;;;;;24.80;22.60;;;10.40;99.90;;;;;;5083309;27;20554;-53
2022/05/06 05:37:06;;;;;;;18.95;17.45;;;10.50;99.90;;;;;;5080053;28;21197;-54
2022/05/06 05:39:46;;;;;;;14.23;13.13;;;10.60;99.90;;;;;;5124387;27;21140;-55
2022/05/06 05:42:28;;;;;;;15.23;14.15;;;10.70;99.90;;;;;;5104163;27;20673;-55
2022/05/06 05:48:21;;;;;;;7.68;7.18;;;10.90;99.90;;;;;;5072038;28;20611;-55
2022/05/06 05:51:06;;;;;;;5.57;5.07;;;11.00;99.90;;;;;;5144837;27;20542;-55
2022/05/06 05:53:56;;;;;;;5.18;4.78;;;11.20;99.90;;;;;;5104307;27;20588;-54
2022/05/06 05:56:39;;;;;;;5.65;4.57;;;11.30;99.90;;;;;;5084825;27;20539;-54
2022/05/06 05:59:22;;;;;;;4.90;4.60;;;11.40;99.90;;;;;;5115763;27;21056;-55
2022/05/06 06:02:02;;;;;;;4.43;4.13;;;11.50;99.90;;;;;;5083742;28;21012;-55
2022/05/06 06:04:44;;;;;;;5.15;4.70;;;11.70;99.90;;;;;;5124571;27;20544;-55
2022/05/06 06:07:26;;;;;;;4.40;3.25;;;11.90;99.90;;;;;;5098709;27;20680;-54
2022/05/06 06:10:10;;;;;;;3.25;3.05;;;12.00;99.90;;;;;;5083667;27;20552;-54
2022/05/06 06:12:50;;;;;;;3.85;3.10;;;12.20;99.90;;;;;;5122913;27;20671;-54
2022/05/06 06:15:31;;;;;;;4.35;3.17;;;12.40;99.90;;;;;;5122812;27;20762;-54
2022/05/06 06:18:10;;;;;;;3.75;3.22;;;12.60;99.90;;;;;;5072870;28;20673;-52
2022/05/06 06:20:51;;;;;;;3.15;2.92;;;12.80;99.90;;;;;;5144517;27;20665;-55
2022/05/06 06:23:32;;;;;;;2.53;2.33;;;13.00;99.90;;;;;;5083527;28;20593;-55
2022/05/06 06:26:13;;;;;;;3.03;2.83;;;13.20;99.90;;;;;;5102967;27;21059;-54
2022/05/06 06:28:55;;;;;;;3.42;2.78;;;13.30;99.90;;;;;;5066261;28;20974;-55
2022/05/06 06:31:37;;;;;;;3.20;2.90;;;13.30;99.90;;;;;;5114263;27;20544;-54
2022/05/06 06:34:19;;;;;;;2.60;2.40;;;13.50;99.90;;;;;;5146160;27;20546;-54
2022/05/06 06:37:00;;;;;;;4.68;2.83;;;13.60;99.90;;;;;;5136455;27;20604;-54
2022/05/06 06:39:40;;;;;;;3.40;2.95;;;13.50;99.90;;;;;;5083521;27;20564;-54
2022/05/06 06:42:20;;;;;;;4.50;2.55;;;13.60;99.90;;;;;;5083346;27;20581;-54
2022/05/06 06:45:11;;;;;;;2.50;2.30;;;13.70;99.90;;;;;;5082192;28;20609;-54
2022/05/06 06:48:11;;;;;;;3.20;2.22;;;13.90;99.90;;;;;;5083047;28;20576;-56
2022/05/06 06:51:09;;;;;;;2.85;2.50;;;14.00;99.90;;;;;;5111255;27;20544;-55
2022/05/06 06:53:58;;;;;;;4.10;2.50;;;14.20;99.90;;;;;;5103992;27;20760;-55
2022/05/06 06:56:38;;;;;;;3.70;2.22;;;14.50;99.90;;;;;;5143286;27;20540;-55
2022/05/06 06:59:18;;;;;;;2.42;2.22;;;14.70;99.90;;;;;;5103632;27;21017;-55
2022/05/06 07:01:58;;;;;;;2.22;1.98;;;15.00;99.90;;;;;;5134521;27;20603;-55
2022/05/06 07:04:38;;;;;;;3.03;2.20;;;15.30;99.90;;;;;;5104056;27;20549;-55
2022/05/06 07:13:12;;;;;;;3.72;2.33;;;15.90;99.90;;;;;;5083601;27;20551;-55
2022/05/06 07:15:52;;;;;;;2.80;2.15;;;16.10;99.90;;;;;;5082149;28;20672;-55
2022/05/06 07:18:32;;;;;;;3.20;2.90;;;16.20;99.90;;;;;;5089710;27;20699;-55
2022/05/06 07:21:12;;;;;;;3.67;2.28;;;16.20;99.90;;;;;;5083406;28;20711;-55
2022/05/06 07:23:52;;;;;;;2.92;2.65;;;16.10;99.90;;;;;;5103985;27;20542;-55
2022/05/06 07:26:31;;;;;;;2.45;2.25;;;16.00;99.90;;;;;;5102926;27;20598;-55
2022/05/06 07:29:11;;;;;;;3.03;2.60;;;16.00;99.90;;;;;;5074989;22;20875;-55
2022/05/06 07:31:51;;;;;;;2.33;2.13;;;15.90;99.90;;;;;;5084146;28;20605;-55
2022/05/06 07:34:32;;;;;;;2.53;2.33;;;15.80;99.90;;;;;;5083487;27;20577;-55
2022/05/06 07:37:12;;;;;;;3.70;2.55;;;15.80;99.90;;;;;;5082482;28;20547;-55
2022/05/06 07:40:00;;;;;;;2.85;2.55;;;15.70;99.90;;;;;;5083748;27;20544;-55
2022/05/06 07:42:42;;;;;;;2.92;2.45;;;15.90;99.90;;;;;;5104612;27;20534;-55
2022/05/06 07:45:21;;;;;;;4.80;2.33;;;16.00;99.90;;;;;;5082956;28;20609;-55
2022/05/06 07:48:03;;;;;;;3.22;1.90;;;16.30;99.90;;;;;;5097704;27;20555;-55
2022/05/06 07:50:44;;;;;;;3.70;2.20;;;16.50;99.90;;;;;;5144650;27;20543;-55
2022/05/06 07:53:24;;;;;;;4.05;2.25;;;16.70;99.90;;;;;;5083945;28;20699;-55
2022/05/06 07:56:04;;;;;;;2.33;2.15;;;16.80;99.90;;;;;;5144080;27;20546;-55
2022/05/06 07:58:44;;;;;;;2.22;2.03;;;16.80;99.90;;;;;;5087118;27;21149;-55
2022/05/06 08:04:32;;;;;;;3.33;2.45;;;16.80;99.90;;;;;;5144790;27;21043;-55
2022/05/06 08:04:37;;;;;;;5.93;2.50;;;17.00;99.90;;;;;;5083458;28;20609;-55
2022/05/06 08:07:17;;;;;;;5.88;2.50;;;17.50;99.90;;;;;;5143982;27;20538;-55
2022/05/06 08:09:57;;;;;;;3.95;2.35;;;17.40;99.90;;;;;;5083383;28;20659;-55
2022/05/06 08:12:37;;;;;;;6.03;2.60;;;17.40;99.90;;;;;;5116006;27;20532;-55
2022/05/06 08:15:17;;;;;;;4.70;2.38;;;17.50;99.90;;;;;;5102603;27;21131;-55
2022/05/06 08:17:56;;;;;;;2.30;2.10;;;17.70;99.90;;;;;;5098700;27;20613;-55
2022/05/06 08:20:36;;;;;;;3.25;2.45;;;17.70;99.90;;;;;;5103493;27;20546;-55
2022/05/06 08:23:16;;;;;;;2.30;2.10;;;17.80;99.90;;;;;;5083692;28;20671;-55
2022/05/06 08:25:56;;;;;;;2.30;2.10;;;17.70;99.90;;;;;;5122765;27;20547;-56
2022/05/06 08:28:35;;;;;;;2.58;2.38;;;17.80;99.90;;;;;;5116832;27;20615;-55
2022/05/06 08:31:15;;;;;;;3.10;2.45;;;17.90;99.90;;;;;;5132113;27;20544;-55
2022/05/06 08:33:55;;;;;;;3.90;2.75;;;18.30;99.90;;;;;;5103812;27;20557;-55
2022/05/06 08:36:35;;;;;;;6.75;3.08;;;18.40;99.90;;;;;;5123222;27;20670;-55
2022/05/06 08:39:15;;;;;;;4.47;2.88;;;18.60;99.90;;;;;;5145226;27;20559;-55
2022/05/06 08:41:55;;;;;;;4.45;3.50;;;19.10;99.90;;;;;;5103910;27;20600;-56
2022/05/06 08:50:52;;;;;;;4.65;4.13;;;19.90;99.90;;;;;;5083524;27;20536;-55
2022/05/06 08:53:33;;;;;;;6.43;4.60;;;20.10;99.90;;;;;;5083700;27;21091;-55
2022/05/06 08:56:13;;;;;;;6.32;4.75;;;20.40;99.90;;;;;;5082616;28;20946;-55
2022/05/06 08:58:54;;;;;;;5.07;4.55;;;20.00;99.90;;;;;;5131076;27;20906;-56
2022/05/06 09:01:35;;;;;;;5.80;5.28;;;20.00;99.90;;;;;;5083590;28;20564;-55
2022/05/06 09:04:14;;;;;;;5.38;4.70;;;19.60;99.90;;;;;;5083910;28;20671;-55
2022/05/06 09:07:14;;;;;;;5.53;5.10;;;19.60;99.90;;;;;;5123450;27;20934;-55
2022/05/06 09:10:14;;;;;;;5.78;5.28;;;19.70;99.90;;;;;;5083367;28;20564;-56
2022/05/06 09:12:56;;;;;;;5.47;4.97;;;19.90;99.90;;;;;;5145272;27;20526;-55
2022/05/06 09:18:37;;;;;;;5.65;5.05;;;20.10;99.90;;;;;;5156517;27;20885;-53
2022/05/06 09:21:17;;;;;;;4.80;4.22;;;20.30;99.90;;;;;;5123994;27;20942;-55
2022/05/06 09:24:16;;;;;;;5.70;5.28;;;20.50;99.90;;;;;;5092954;27;20565;-55
2022/05/06 09:27:01;;;;;;;5.93;4.57;;;20.70;99.90;;;;;;5121716;27;20955;-55
2022/05/06 09:29:42;;;;;;;5.93;5.43;;;20.10;99.90;;;;;;5097647;27;21037;-55
2022/05/06 09:32:24;;;;;;;5.53;4.95;;;20.00;99.90;;;;;;5125164;27;20622;-55
2022/05/06 09:35:13;;;;;;;5.78;5.20;;;20.10;99.90;;;;;;5120461;27;20629;-55
2022/05/06 09:37:53;;;;;;;5.15;4.75;;;20.10;99.90;;;;;;5109678;27;20719;-55
2022/05/06 09:40:33;;;;;;;4.93;4.63;;;20.20;99.90;;;;;;5082716;28;20573;-55
2022/05/06 09:43:17;;;;;;;5.40;5.00;;;20.30;99.90;;;;;;5079006;28;20613;-55
2022/05/06 09:45:57;;;;;;;6.00;5.55;;;20.40;99.90;;;;;;5146924;27;20550;-55
2022/05/06 09:48:55;;;;;;;5.85;5.28;;;20.60;99.90;;;;;;5126693;27;20625;-55
2022/05/06 09:51:36;;;;;;;4.68;4.30;;;20.60;99.90;;;;;;5133440;27;20558;-55
2022/05/06 09:54:32;;;;;;;5.25;4.53;;;20.90;99.90;;;;;;5088356;27;20592;-55
2022/05/06 09:57:13;;;;;;;5.80;5.22;;;21.60;99.90;;;;;;5100973;27;20549;-55
2022/05/06 09:59:53;;;;;;;9.15;5.75;;;21.60;99.90;;;;;;5103308;27;20899;-55
2022/05/06 10:02:36;;;;;;;5.80;5.25;;;21.40;99.90;;;;;;5121395;27;20672;-55
2022/05/06 10:05:16;;;;;;;15.90;6.07;;;21.60;99.90;;;;;;5063429;27;20557;-55
2022/05/06 10:07:59;;;;;;;6.03;5.45;;;21.80;99.90;;;;;;5113378;27;21121;-55
2022/05/06 10:10:41;;;;;;;5.22;4.75;;;22.10;99.90;;;;;;5122276;27;20536;-55
2022/05/06 10:13:22;;;;;;;6.97;4.90;;;22.60;99.90;;;;;;5103037;27;20667;-55
2022/05/06 10:16:01;;;;;;;5.93;4.65;;;22.70;99.90;;;;;;5132033;27;20586;-55
2022/05/06 10:18:43;;;;;;;7.32;6.70;;;22.00;99.90;;;;;;5130571;27;20568;-55
2022/05/06 10:21:49;;;;;;;6.45;5.95;;;22.00;99.90;;;;;;5103521;27;20551;-55
2022/05/06 10:24:38;;;;;;;6.22;5.20;;;21.80;99.90;;;;;;5102692;27;20541;-55
2022/05/06 10:32:25;;;;;;;5.90;5.30;;;22.00;99.90;;;;;;5075610;27;20573;-55
2022/05/06 10:34:13;;;;;;;5.70;5.30;;;22.50;99.90;;;;;;5083512;28;20625;-55
2022/05/06 10:36:55;;;;;;;5.43;5.03;;;22.80;99.90;;;;;;5101693;27;20534;-55
2022/05/06 10:39:38;;;;;;;7.40;6.47;;;22.50;99.90;;;;;;5144391;27;20566;-55
2022/05/06 10:42:19;;;;;;;6.55;6.05;;;22.20;99.90;;;;;;5102683;27;20595;-55
2022/05/06 10:44:59;;;;;;;6.47;5.88;;;21.80;99.90;;;;;;5122007;27;20553;-56
2022/05/06 10:47:51;;;;;;;5.82;5.38;;;21.40;99.90;;;;;;5078951;27;20633;-55
2022/05/06 10:50:40;;;;;;;5.85;5.35;;;21.40;99.90;;;;;;5134153;27;21136;-55
2022/05/06 10:56:11;;;;;;;7.88;7.18;;;21.90;99.90;;;;;;5143701;27;20942;-55
2022/05/06 10:59:14;;;;;;;7.45;6.78;;;22.40;99.90;;;;;;5124661;27;20548;-55
2022/05/06 11:01:53;;;;;;;6.80;6.22;;;22.50;99.90;;;;;;5127065;27;20660;-55
2022/05/06 11:04:33;;;;;;;6.57;6.00;;;22.90;99.90;;;;;;5083685;28;20566;-53
2022/05/06 11:07:14;;;;;;;6.68;6.07;;;23.00;99.90;;;;;;5082796;28;20569;-54
2022/05/06 11:09:55;;;;;;;8.13;6.43;;;23.00;99.90;;;;;;5103522;27;20680;-55
2022/05/06 11:12:36;;;;;;;7.07;6.57;;;22.60;99.90;;;;;;5084058;28;20669;-55
2022/05/06 11:15:17;;;;;;;8.18;7.55;;;22.20;99.90;;;;;;5144310;27;20538;-55
2022/05/06 11:17:59;;;;;;;7.35;6.47;;;21.80;99.90;;;;;;5119051;27;20887;-54
2022/05/06 11:20:39;;;;;;;6.78;6.18;;;21.60;99.90;;;;;;5083245;27;20556;-55
2022/05/06 11:23:18;;;;;;;7.63;6.93;;;21.80;99.90;;;;;;5119954;27;20682;-56
2022/05/06 11:25:58;;;;;;;6.90;6.18;;;22.00;99.90;;;;;;5143780;27;20939;-55
2022/05/06 11:29:01;;;;;;;7.63;6.97;;;21.80;99.90;;;;;;5128280;27;20560;-55
2022/05/06 11:31:47;;;;;;;7.35;6.85;;;21.80;99.90;;;;;;5103746;27;20607;-56
2022/05/06 11:34:28;;;;;;;7.13;6.35;;;21.60;99.90;;;;;;5104115;27;20553;-56
2022/05/06 11:37:08;;;;;;;7.13;6.65;;;21.20;99.90;;;;;;5102486;27;20967;-55
2022/05/06 11:39:48;;;;;;;7.22;6.63;;;21.10;99.90;;;;;;5124223;27;21208;-55
2022/05/06 11:42:28;;;;;;;7.60;7.00;;;20.70;99.90;;;;;;5103898;27;21074;-55
2022/05/06 11:48:07;;;;;;;7.03;6.53;;;;;;;;;;5075831;28;20603;-56
2022/05/06 11:50:51;;;;;;;7.57;6.88;;;;;;;;;;5104042;27;20542;-56
2022/05/06 11:53:32;;;;;;;8.30;7.60;;;;;;;;;;5083643;27;20573;-56
2022/05/06 11:56:12;;;;;;;8.15;7.35;;;;;;;;;;5103498;27;20557;-56
2022/05/06 11:58:53;;;;;;;7.80;6.93;;;;;;;;;;5070332;28;20603;-56
2022/05/06 12:01:35;;;;;;;8.02;7.28;;;;;;;;;;5104585;27;21188;-56
2022/05/06 12:04:15;;;;;;;8.18;7.20;;;;;;;;;;5145632;27;20620;-56
2022/05/06 12:06:56;;;;;;;8.05;7.25;;;;;;;;;;5144344;27;20546;-56
2022/05/06 12:09:44;;;;;;;9.40;8.45;;;;;;;;;;5133688;27;20683;-54
2022/05/06 12:12:24;;;;;;;7.80;7.30;;;;;;;;;;5104362;27;20549;-56
2022/05/06 12:15:14;;;;;;;7.57;7.07;;;;;;;;;;5133972;27;20532;-54
2022/05/06 12:18:02;;;;;;;7.65;7.05;;;;;;;;;;5155118;27;20555;-54
2022/05/06 12:20:44;;;;;;;7.50;6.88;;;;;;;;;;5084231;27;20549;-56
2022/05/06 12:23:29;;;;;;;7.50;6.90;;;;;;;;;;5082825;28;20919;-56
2022/05/06 12:26:10;;;;;;;7.32;6.75;;;;;;;;;;5083301;27;20563;-54
2022/05/06 12:28:50;;;;;;;7.35;6.65;;;;;;;;;;5070662;27;20571;-55
2022/05/06 12:31:31;;;;;;;7.40;6.75;;;;;;;;;;5083839;27;20585;-56
2022/05/06 12:34:12;;;;;;;7.72;7.03;;;;;;;;;;5083674;27;20560;-55
2022/05/06 12:36:52;;;;;;;7.38;6.78;;;;;;;;;;5123393;27;20947;-56
2022/05/06 12:39:31;;;;;;;9.27;6.35;;;;;;;;;;5083381;27;20563;-56
2022/05/06 12:42:15;;;;;;;7.95;7.22;;;;;;;;;;5104102;27;20553;-56
2022/05/06 12:44:54;;;;;;;8.82;7.65;;;;;;;;;;5128054;27;20659;-56
2022/05/06 12:50:32;;;;;;;6.97;6.53;;;;;;;;;;5083876;28;20617;-56
2022/05/06 12:53:12;;;;;;;6.85;6.35;;;;;;;;;;5145086;27;21553;-55
2022/05/06 12:55:51;;;;;;;6.97;6.47;;;;;;;;;;5115185;27;20548;-55
2022/05/06 12:58:32;;;;;;;6.80;6.40;;;;;;;;;;5147299;27;20941;-54
2022/05/06 13:01:11;;;;;;;7.47;6.90;;;;;;;;;;5103896;27;20608;-56
2022/05/06 13:03:51;;;;;;;7.15;6.65;;;;;;;;;;5103536;27;20673;-56
2022/05/06 13:06:32;;;;;;;10.35;7.80;;;;;;;;;;5083197;27;20535;-54
2022/05/06 13:09:12;;;;;;;7.53;7.00;;;;;;;;;;5083966;27;20925;-55
2022/05/06 13:11:52;;;;;;;6.78;6.30;;;;;;;;;;5083751;28;20596;-55
2022/05/06 13:14:32;;;;;;;7.72;7.03;;;;;;;;;;5083872;27;20536;-56
2022/05/06 13:17:11;;;;;;;7.50;7.00;;;;;;;;;;5103513;27;20546;-55
2022/05/06 13:19:51;;;;;;;6.97;6.43;;;;;;;;;;5147794;27;20743;-56
2022/05/06 13:22:31;;;;;;;6.60;6.05;;;;;;;;;;5084818;27;20604;-56
2022/05/06 13:25:11;;;;;;;6.32;5.90;;;;;;;;;;5083047;28;20555;-55
2022/05/06 13:27:51;;;;;;;7.35;6.53;;;;;;;;;;5078447;27;20674;-55
2022/05/06 13:30:31;;;;;;;6.57;6.07;;;;;;;;;;5084243;27;20543;-55
2022/05/06 13:33:10;;;;;;;7.43;7.03;;;;;;;;;;5104189;27;20674;-55
2022/05/06 13:35:51;;;;;;;7.13;6.53;;;;;;;;;;5102649;27;20666;-55
2022/05/06 13:38:30;;;;;;;7.20;6.65;;;;;;;;;;5093893;27;20552;-55
2022/05/06 13:41:10;;;;;;;7.60;6.90;;;;;;;;;;5083427;28;20567;-52
2022/05/06 13:43:50;;;;;;;6.70;6.28;;;;;;;;;;5083703;28;21033;-54
2022/05/06 13:46:30;;;;;;;5.72;5.28;;;;;;;;;;5103028;27;20674;-55
2022/05/06 13:49:09;;;;;;;7.47;6.05;;;;;;;;;;5108381;27;20679;-53
2022/05/06 13:51:49;;;;;;;6.35;5.85;;;;;;;;;;5083796;28;20539;-54
2022/05/06 13:54:29;;;;;;;6.35;5.85;;;;;;;;;;5124306;27;20536;-55
2022/05/06 14:00:07;;;;;;;7.18;6.63;;;;;;;;;;5103244;27;21093;-55
2022/05/06 14:02:53;;;;;;;6.40;6.00;;;;;;;;;;5104079;27;21007;-56
2022/05/06 14:05:32;;;;;;;7.28;6.25;;;;;;;;;;5082702;28;20593;-53
2022/05/06 14:08:12;;;;;;;7.03;6.35;;;;;;;;;;5096238;27;20683;-56
2022/05/06 14:10:52;;;;;;;7.32;6.63;;;;;;;;;;5083454;27;20577;-53
2022/05/06 14:13:32;;;;;;;8.35;7.60;;;;;;;;;;5081475;27;21068;-53
2022/05/06 14:16:12;;;;;;;7.63;6.70;;;;;;;;;;5102507;27;20545;-55
2022/05/06 14:18:51;;;;;;;8.80;8.23;;;;;;;;;;5124258;27;20680;-55
2022/05/06 14:21:31;;;;;;;6.82;6.25;;;;;;;;;;5083518;28;21115;-55
2022/05/06 14:24:12;;;;;;;6.47;5.97;;;;;;;;;;5083664;28;21184;-55
2022/05/06 14:26:52;;;;;;;6.95;6.45;;;;;;;;;;5102227;27;20615;-54
2022/05/06 14:29:34;;;;;;;7.18;6.57;;;;;;;;;;5163420;27;20548;-55
2022/05/06 14:32:14;;;;;;;6.38;5.97;;;;;;;;;;5084175;28;20543;-52
2022/05/06 14:35:15;;;;;;;6.35;5.88;;;;;;;;;;5083120;28;20672;-54
2022/05/06 14:37:56;;;;;;;6.45;6.05;;;;;;;;;;5098496;27;21237;-55
2022/05/06 14:40:37;;;;;;;5.68;5.28;;;;;;;;;;5103611;27;20534;-54
2022/05/06 14:43:17;;;;;;;6.13;5.53;;;;;;;;;;5083887;28;20687;-54
2022/05/06 14:45:57;;;;;;;6.18;5.68;;;;;;;;;;5123053;27;21204;-54
2022/05/06 14:48:37;;;;;;;6.63;6.22;;;;;;;;;;5133786;27;20679;-55
2022/05/06 14:51:16;;;;;;;8.32;7.72;;;;;;;;;;5104013;27;20546;-55
2022/05/06 14:53:56;;;;;;;8.00;7.40;;;;;;;;;;5103741;27;20619;-54
2022/05/06 14:56:36;;;;;;;7.28;6.68;;;;;;;;;;5102641;27;20681;-54
2022/05/06 14:59:16;;;;;;;6.90;6.30;;;;;;;;;;5104214;27;20558;-55
2022/05/06 15:01:56;;;;;;;7.22;6.60;;;;;;;;;;5145099;27;20535;-56
2022/05/06 15:04:36;;;;;;;6.00;5.60;;;;;;;;;;5103433;27;20559;-56
2022/05/06 15:07:15;;;;;;;6.80;6.10;;;;;;;;;;5083006;28;20550;-55
2022/05/06 15:09:56;;;;;;;6.68;6.20;;;;;;;;;;5103897;27;20556;-54
2022/05/06 15:12:35;;;;;;;7.00;6.50;;;;;;;;;;5129512;27;21226;-55
2022/05/06 15:15:15;;;;;;;6.95;6.13;;;;;;;;;;5082790;28;20601;-54
2022/05/06 15:19:23;;;;;;;6.40;5.80;;;;;;;;;;5097747;27;20547;-56
2022/05/06 15:20:55;;;;;;;6.38;6.00;;;;;;;;;;5113987;27;20542;-55
2022/05/06 15:23:35;;;;;;;6.40;5.80;;;;;;;;;;5083675;28;20543;-56